sensor_id;sensor_type;location;lat;lon;timestamp;pressure;altitude;pressure_sealevel;temperature;humidity
10261;BME280;5175;42.606;23.388;2023-06-10T00:00:47;93390.03;;;16.45;100.00
10261;BME280;5175;42.606;23.388;2023-06-10T00:03:15;93400.19;;;16.40;100.00
10261;BME280;5175;42.606;23.388;2023-06-10T00:05:43;93402.81;;;16.57;100.00
10261;BME280;5175;42.606;23.388;2023-06-10T00:08:10;93389.84;;;16.50;100.00
10261;BME280;5175;42.606;23.388;2023-06-10T00:10:38;93402.50;;;16.58;100.00
10261;BME280;5175;42.606;23.388;2023-06-10T00:13:06;93391.88;;;16.62;100.00
10261;BME280;5175;42.606;23.388;2023-06-10T00:15:34;93396.94;;;16.63;100.00
10261;BME280;5175;42.606;23.388;2023-06-10T00:18:02;93398.84;;;16.63;100.00
10261;BME280;5175;42.606;23.388;2023-06-10T00:20:30;93398.22;;;16.57;100.00
10261;BME280;5175;42.606;23.388;2023-06-10T00:22:58;93398.50;;;16.64;100.00
10261;BME280;5175;42.606;23.388;2023-06-10T00:25:26;93382.31;;;16.35;100.00
10261;BME280;5175;42.606;23.388;2023-06-10T00:27:55;93342.03;;;16.09;100.00
10261;BME280;5175;42.606;23.388;2023-06-10T00:30:22;93397.47;;;16.48;100.00
10261;BME280;5175;42.606;23.388;2023-06-10T00:32:48;93397.31;;;16.45;100.00
10261;BME280;5175;42.606;23.388;2023-06-10T00:35:15;93406.97;;;16.46;100.00
10261;BME280;5175;42.606;23.388;2023-06-10T00:37:46;93360.97;;;16.21;100.00
10261;BME280;5175;42.606;23.388;2023-06-10T00:40:13;93409.66;;;16.54;100.00
10261;BME280;5175;42.606;23.388;2023-06-10T00:42:40;93408.50;;;16.64;100.00
10261;BME280;5175;42.606;23.388;2023-06-10T00:45:07;93408.19;;;16.65;100.00
10261;BME280;5175;42.606;23.388;2023-06-10T00:47:34;93404.56;;;16.61;100.00
10261;BME280;5175;42.606;23.388;2023-06-10T00:50:02;93393.44;;;16.63;100.00
10261;BME280;5175;42.606;23.388;2023-06-10T00:52:29;93399.81;;;16.58;100.00
10261;BME280;5175;42.606;23.388;2023-06-10T00:54:58;93400.63;;;16.59;100.00
10261;BME280;5175;42.606;23.388;2023-06-10T00:57:25;93407.09;;;16.58;100.00
10261;BME280;5175;42.606;23.388;2023-06-10T00:59:53;93406.81;;;16.42;100.00
10261;BME280;5175;42.606;23.388;2023-06-10T01:02:21;93410.78;;;16.53;100.00
10261;BME280;5175;42.606;23.388;2023-06-10T01:04:50;93412.81;;;16.48;100.00
10261;BME280;5175;42.606;23.388;2023-06-10T01:07:24;93401.81;;;16.23;100.00
10261;BME280;5175;42.606;23.388;2023-06-10T01:09:55;93404.13;;;16.04;100.00
10261;BME280;5175;42.606;23.388;2023-06-10T01:12:31;93403.16;;;16.00;100.00
10261;BME280;5175;42.606;23.388;2023-06-10T01:15:00;93381.63;;;16.00;100.00
10261;BME280;5175;42.606;23.388;2023-06-10T01:17:28;93406.28;;;16.19;100.00
10261;BME280;5175;42.606;23.388;2023-06-10T01:19:56;93398.88;;;16.08;100.00
10261;BME280;5175;42.606;23.388;2023-06-10T01:22:26;93403.75;;;16.14;100.00
10261;BME280;5175;42.606;23.388;2023-06-10T01:24:54;93405.66;;;16.22;100.00
10261;BME280;5175;42.606;23.388;2023-06-10T01:27:26;93403.13;;;16.17;100.00
10261;BME280;5175;42.606;23.388;2023-06-10T01:29:59;93398.94;;;16.28;100.00
10261;BME280;5175;42.606;23.388;2023-06-10T01:32:33;93404.97;;;16.25;100.00
10261;BME280;5175;42.606;23.388;2023-06-10T01:35:02;93409.59;;;16.25;100.00
10261;BME280;5175;42.606;23.388;2023-06-10T01:37:33;93407.53;;;16.31;100.00
10261;BME280;5175;42.606;23.388;2023-06-10T01:40:02;93414.28;;;16.37;100.00
10261;BME280;5175;42.606;23.388;2023-06-10T01:42:31;93384.22;;;16.35;100.00
10261;BME280;5175;42.606;23.388;2023-06-10T01:44:58;93408.25;;;16.40;100.00
10261;BME280;5175;42.606;23.388;2023-06-10T01:47:25;93406.66;;;16.39;100.00
10261;BME280;5175;42.606;23.388;2023-06-10T01:49:52;93386.94;;;16.26;100.00
10261;BME280;5175;42.606;23.388;2023-06-10T01:52:19;93401.00;;;16.32;100.00
10261;BME280;5175;42.606;23.388;2023-06-10T01:54:47;93396.56;;;16.36;100.00
10261;BME280;5175;42.606;23.388;2023-06-10T01:57:15;93393.88;;;16.36;100.00
10261;BME280;5175;42.606;23.388;2023-06-10T01:59:42;93402.69;;;16.45;100.00
10261;BME280;5175;42.606;23.388;2023-06-10T02:02:10;93407.91;;;16.50;100.00
10261;BME280;5175;42.606;23.388;2023-06-10T02:04:37;93374.28;;;16.18;100.00
10261;BME280;5175;42.606;23.388;2023-06-10T02:07:04;93408.91;;;16.37;100.00
10261;BME280;5175;42.606;23.388;2023-06-10T02:09:34;93407.19;;;16.23;100.00
10261;BME280;5175;42.606;23.388;2023-06-10T02:12:04;93405.31;;;16.24;100.00
10261;BME280;5175;42.606;23.388;2023-06-10T02:14:32;93399.09;;;16.32;100.00
10261;BME280;5175;42.606;23.388;2023-06-10T02:16:59;93397.22;;;16.24;100.00
10261;BME280;5175;42.606;23.388;2023-06-10T02:19:26;93390.41;;;16.26;100.00
10261;BME280;5175;42.606;23.388;2023-06-10T02:21:53;93387.91;;;16.21;100.00
10261;BME280;5175;42.606;23.388;2023-06-10T02:24:20;93390.25;;;16.23;100.00
10261;BME280;5175;42.606;23.388;2023-06-10T02:26:47;93382.81;;;16.28;100.00
10261;BME280;5175;42.606;23.388;2023-06-10T02:29:15;93385.84;;;16.18;100.00
10261;BME280;5175;42.606;23.388;2023-06-10T02:31:42;93379.66;;;16.18;100.00
10261;BME280;5175;42.606;23.388;2023-06-10T02:34:09;93374.34;;;16.09;100.00
10261;BME280;5175;42.606;23.388;2023-06-10T02:36:36;93380.81;;;16.17;100.00
10261;BME280;5175;42.606;23.388;2023-06-10T02:39:03;93375.69;;;16.24;100.00
10261;BME280;5175;42.606;23.388;2023-06-10T02:41:29;93375.06;;;16.27;100.00
10261;BME280;5175;42.606;23.388;2023-06-10T02:43:56;93367.97;;;16.22;100.00
10261;BME280;5175;42.606;23.388;2023-06-10T02:46:24;93355.63;;;16.13;100.00
10261;BME280;5175;42.606;23.388;2023-06-10T02:48:51;93353.44;;;16.06;100.00
10261;BME280;5175;42.606;23.388;2023-06-10T02:51:18;93358.22;;;16.01;100.00
10261;BME280;5175;42.606;23.388;2023-06-10T02:53:45;93370.50;;;16.10;100.00
10261;BME280;5175;42.606;23.388;2023-06-10T02:56:12;93361.34;;;16.11;100.00
10261;BME280;5175;42.606;23.388;2023-06-10T02:58:38;93370.84;;;16.09;100.00
10261;BME280;5175;42.606;23.388;2023-06-10T03:01:05;93362.94;;;16.04;100.00
10261;BME280;5175;42.606;23.388;2023-06-10T03:03:33;93363.25;;;16.02;100.00
10261;BME280;5175;42.606;23.388;2023-06-10T03:06:02;93363.59;;;16.01;100.00
10261;BME280;5175;42.606;23.388;2023-06-10T03:08:29;93357.41;;;16.00;100.00
10261;BME280;5175;42.606;23.388;2023-06-10T03:10:55;93372.38;;;16.18;100.00
10261;BME280;5175;42.606;23.388;2023-06-10T03:13:23;93368.44;;;16.16;100.00
10261;BME280;5175;42.606;23.388;2023-06-10T03:15:50;93363.34;;;16.23;100.00
10261;BME280;5175;42.606;23.388;2023-06-10T03:18:17;93367.97;;;16.22;100.00
10261;BME280;5175;42.606;23.388;2023-06-10T03:20:45;93366.38;;;16.21;100.00
10261;BME280;5175;42.606;23.388;2023-06-10T03:23:11;93356.56;;;16.17;100.00
10261;BME280;5175;42.606;23.388;2023-06-10T03:25:38;93347.59;;;16.04;100.00
10261;BME280;5175;42.606;23.388;2023-06-10T03:28:05;93370.50;;;16.19;100.00
10261;BME280;5175;42.606;23.388;2023-06-10T03:30:32;93363.84;;;16.16;100.00
10261;BME280;5175;42.606;23.388;2023-06-10T03:32:58;93373.53;;;16.17;100.00
10261;BME280;5175;42.606;23.388;2023-06-10T03:35:26;93382.66;;;16.25;100.00
10261;BME280;5175;42.606;23.388;2023-06-10T03:37:54;93381.00;;;16.41;100.00
10261;BME280;5175;42.606;23.388;2023-06-10T03:40:20;93384.63;;;16.45;100.00
10261;BME280;5175;42.606;23.388;2023-06-10T03:42:47;93382.78;;;16.37;100.00
10261;BME280;5175;42.606;23.388;2023-06-10T03:45:14;93368.25;;;16.29;100.00
10261;BME280;5175;42.606;23.388;2023-06-10T03:47:41;93377.84;;;16.39;100.00
10261;BME280;5175;42.606;23.388;2023-06-10T03:50:09;93393.34;;;16.51;100.00
10261;BME280;5175;42.606;23.388;2023-06-10T03:52:37;93393.44;;;16.63;100.00
10261;BME280;5175;42.606;23.388;2023-06-10T03:55:07;93397.84;;;16.67;100.00
10261;BME280;5175;42.606;23.388;2023-06-10T03:57:34;93397.25;;;16.91;100.00
10261;BME280;5175;42.606;23.388;2023-06-10T04:00:00;93413.16;;;16.84;100.00
10261;BME280;5175;42.606;23.388;2023-06-10T04:02:31;93389.50;;;16.60;100.00
10261;BME280;5175;42.606;23.388;2023-06-10T04:05:00;93394.38;;;16.67;100.00
10261;BME280;5175;42.606;23.388;2023-06-10T04:07:27;93396.28;;;16.66;100.00
10261;BME280;5175;42.606;23.388;2023-06-10T04:09:54;93385.88;;;16.85;100.00
10261;BME280;5175;42.606;23.388;2023-06-10T04:12:22;93383.63;;;16.87;100.00
10261;BME280;5175;42.606;23.388;2023-06-10T04:14:49;93376.38;;;16.79;100.00
10261;BME280;5175;42.606;23.388;2023-06-10T04:17:19;93382.31;;;16.73;100.00
10261;BME280;5175;42.606;23.388;2023-06-10T04:19:45;93389.97;;;16.92;100.00
10261;BME280;5175;42.606;23.388;2023-06-10T04:22:12;93393.72;;;16.99;100.00
10261;BME280;5175;42.606;23.388;2023-06-10T04:24:39;93376.03;;;16.89;100.00
10261;BME280;5175;42.606;23.388;2023-06-10T04:27:06;93395.56;;;17.07;100.00
10261;BME280;5175;42.606;23.388;2023-06-10T04:29:35;93389.44;;;16.98;100.00
10261;BME280;5175;42.606;23.388;2023-06-10T04:32:02;93403.25;;;16.97;100.00
10261;BME280;5175;42.606;23.388;2023-06-10T04:34:31;93395.63;;;16.99;100.00
10261;BME280;5175;42.606;23.388;2023-06-10T04:36:57;93360.59;;;16.69;100.00
10261;BME280;5175;42.606;23.388;2023-06-10T04:39:24;93396.16;;;16.92;100.00
10261;BME280;5175;42.606;23.388;2023-06-10T04:41:51;93401.34;;;16.97;100.00
10261;BME280;5175;42.606;23.388;2023-06-10T04:44:18;93412.34;;;16.83;100.00
10261;BME280;5175;42.606;23.388;2023-06-10T04:46:46;93399.75;;;16.96;100.00
10261;BME280;5175;42.606;23.388;2023-06-10T04:49:13;93404.88;;;16.89;100.00
10261;BME280;5175;42.606;23.388;2023-06-10T04:51:40;93400.75;;;16.92;100.00
10261;BME280;5175;42.606;23.388;2023-06-10T04:54:07;93323.63;;;16.49;100.00
10261;BME280;5175;42.606;23.388;2023-06-10T04:56:34;93394.63;;;17.03;100.00
10261;BME280;5175;42.606;23.388;2023-06-10T04:59:01;93393.06;;;17.02;100.00
10261;BME280;5175;42.606;23.388;2023-06-10T05:01:28;93364.00;;;16.87;100.00
10261;BME280;5175;42.606;23.388;2023-06-10T05:03:56;93389.69;;;16.84;100.00
10261;BME280;5175;42.606;23.388;2023-06-10T05:06:23;93387.16;;;16.79;100.00
10261;BME280;5175;42.606;23.388;2023-06-10T05:08:50;93378.72;;;16.89;100.00
10261;BME280;5175;42.606;23.388;2023-06-10T05:11:17;93382.97;;;16.90;100.00
10261;BME280;5175;42.606;23.388;2023-06-10T05:13:43;93389.25;;;17.03;100.00
10261;BME280;5175;42.606;23.388;2023-06-10T05:16:10;93342.47;;;16.58;100.00
10261;BME280;5175;42.606;23.388;2023-06-10T05:18:37;93370.91;;;16.97;100.00
10261;BME280;5175;42.606;23.388;2023-06-10T05:21:05;93376.13;;;17.22;100.00
10261;BME280;5175;42.606;23.388;2023-06-10T05:23:32;93382.53;;;17.50;100.00
10261;BME280;5175;42.606;23.388;2023-06-10T05:26:00;93385.03;;;17.76;100.00
10261;BME280;5175;42.606;23.388;2023-06-10T05:28:26;93386.88;;;17.84;100.00
10261;BME280;5175;42.606;23.388;2023-06-10T05:30:53;93390.03;;;17.98;100.00
10261;BME280;5175;42.606;23.388;2023-06-10T05:33:20;93393.78;;;18.18;100.00
10261;BME280;5175;42.606;23.388;2023-06-10T05:35:47;93386.41;;;18.27;100.00
10261;BME280;5175;42.606;23.388;2023-06-10T05:38:15;93381.66;;;18.36;100.00
10261;BME280;5175;42.606;23.388;2023-06-10T05:40:42;93395.31;;;18.40;100.00
10261;BME280;5175;42.606;23.388;2023-06-10T05:43:09;93385.06;;;18.33;100.00
10261;BME280;5175;42.606;23.388;2023-06-10T05:45:37;93402.59;;;18.15;100.00
10261;BME280;5175;42.606;23.388;2023-06-10T05:48:05;93402.25;;;18.17;100.00
10261;BME280;5175;42.606;23.388;2023-06-10T05:50:33;93406.84;;;18.16;100.00
10261;BME280;5175;42.606;23.388;2023-06-10T05:53:03;93411.72;;;18.23;100.00
10261;BME280;5175;42.606;23.388;2023-06-10T05:55:33;93414.06;;;18.24;100.00
10261;BME280;5175;42.606;23.388;2023-06-10T05:58:00;93408.00;;;18.15;100.00
10261;BME280;5175;42.606;23.388;2023-06-10T06:00:27;93405.66;;;18.26;100.00
10261;BME280;5175;42.606;23.388;2023-06-10T06:02:54;93403.22;;;18.57;100.00
10261;BME280;5175;42.606;23.388;2023-06-10T06:05:22;93412.91;;;18.58;100.00
10261;BME280;5175;42.606;23.388;2023-06-10T06:07:49;93418.56;;;18.77;100.00
10261;BME280;5175;42.606;23.388;2023-06-10T06:10:17;93416.53;;;18.74;100.00
10261;BME280;5175;42.606;23.388;2023-06-10T06:12:45;93419.25;;;18.74;100.00
10261;BME280;5175;42.606;23.388;2023-06-10T06:15:12;93427.44;;;18.65;100.00
10261;BME280;5175;42.606;23.388;2023-06-10T06:17:38;93418.09;;;18.75;100.00
10261;BME280;5175;42.606;23.388;2023-06-10T06:20:06;93411.13;;;18.74;100.00
10261;BME280;5175;42.606;23.388;2023-06-10T06:22:33;93421.25;;;18.89;100.00
10261;BME280;5175;42.606;23.388;2023-06-10T06:25:00;93410.00;;;18.99;100.00
10261;BME280;5175;42.606;23.388;2023-06-10T06:27:27;93411.91;;;18.99;100.00
10261;BME280;5175;42.606;23.388;2023-06-10T06:29:56;93408.09;;;19.00;100.00
10261;BME280;5175;42.606;23.388;2023-06-10T06:32:22;93405.94;;;19.05;100.00
10261;BME280;5175;42.606;23.388;2023-06-10T06:34:51;93409.88;;;18.96;100.00
10261;BME280;5175;42.606;23.388;2023-06-10T06:37:21;93400.97;;;18.95;100.00
10261;BME280;5175;42.606;23.388;2023-06-10T06:39:47;93403.34;;;18.97;100.00
10261;BME280;5175;42.606;23.388;2023-06-10T06:42:14;93411.34;;;18.93;100.00
10261;BME280;5175;42.606;23.388;2023-06-10T06:44:41;93398.38;;;18.99;100.00
10261;BME280;5175;42.606;23.388;2023-06-10T06:47:09;93400.63;;;19.09;100.00
10261;BME280;5175;42.606;23.388;2023-06-10T06:49:36;93402.31;;;19.13;100.00
10261;BME280;5175;42.606;23.388;2023-06-10T06:52:04;93409.06;;;19.19;100.00
10261;BME280;5175;42.606;23.388;2023-06-10T06:54:31;93395.41;;;19.16;100.00
10261;BME280;5175;42.606;23.388;2023-06-10T06:56:57;93396.25;;;19.04;100.00
10261;BME280;5175;42.606;23.388;2023-06-10T06:59:24;93398.00;;;19.24;100.00
10261;BME280;5175;42.606;23.388;2023-06-10T07:01:51;93403.31;;;19.33;100.00
10261;BME280;5175;42.606;23.388;2023-06-10T07:04:20;93405.41;;;19.52;100.00
10261;BME280;5175;42.606;23.388;2023-06-10T07:06:48;93408.81;;;19.49;100.00
10261;BME280;5175;42.606;23.388;2023-06-10T07:09:14;93404.97;;;19.50;100.00
10261;BME280;5175;42.606;23.388;2023-06-10T07:11:41;93383.53;;;19.57;100.00
10261;BME280;5175;42.606;23.388;2023-06-10T07:14:08;93399.25;;;19.79;100.00
10261;BME280;5175;42.606;23.388;2023-06-10T07:16:36;93393.53;;;19.68;100.00
10261;BME280;5175;42.606;23.388;2023-06-10T07:19:02;93397.31;;;19.79;100.00
10261;BME280;5175;42.606;23.388;2023-06-10T07:21:31;93397.81;;;19.97;100.00
10261;BME280;5175;42.606;23.388;2023-06-10T07:23:59;93400.53;;;19.97;100.00
10261;BME280;5175;42.606;23.388;2023-06-10T07:26:25;93392.66;;;19.92;100.00
10261;BME280;5175;42.606;23.388;2023-06-10T07:28:52;93401.81;;;20.03;100.00
10261;BME280;5175;42.606;23.388;2023-06-10T07:31:19;93397.44;;;20.26;100.00
10261;BME280;5175;42.606;23.388;2023-06-10T07:33:46;93391.28;;;20.41;100.00
10261;BME280;5175;42.606;23.388;2023-06-10T07:36:13;93393.72;;;20.78;100.00
10261;BME280;5175;42.606;23.388;2023-06-10T07:38:41;93396.41;;;20.78;100.00
10261;BME280;5175;42.606;23.388;2023-06-10T07:41:08;93396.50;;;20.81;100.00
10261;BME280;5175;42.606;23.388;2023-06-10T07:43:36;93385.13;;;20.76;100.00
10261;BME280;5175;42.606;23.388;2023-06-10T07:46:03;93385.50;;;20.90;100.00
10261;BME280;5175;42.606;23.388;2023-06-10T07:48:31;93346.84;;;20.62;100.00
10261;BME280;5175;42.606;23.388;2023-06-10T07:50:58;93395.53;;;21.05;100.00
10261;BME280;5175;42.606;23.388;2023-06-10T07:53:25;93392.81;;;21.20;100.00
10261;BME280;5175;42.606;23.388;2023-06-10T07:55:53;93392.91;;;21.08;100.00
10261;BME280;5175;42.606;23.388;2023-06-10T07:58:20;93397.19;;;21.25;100.00
10261;BME280;5175;42.606;23.388;2023-06-10T08:00:47;93402.78;;;21.16;100.00
10261;BME280;5175;42.606;23.388;2023-06-10T08:03:14;93410.28;;;21.39;100.00
10261;BME280;5175;42.606;23.388;2023-06-10T08:05:41;93404.16;;;21.61;100.00
10261;BME280;5175;42.606;23.388;2023-06-10T08:08:08;93409.44;;;21.73;100.00
10261;BME280;5175;42.606;23.388;2023-06-10T08:10:35;93414.94;;;21.92;100.00
10261;BME280;5175;42.606;23.388;2023-06-10T08:13:03;93412.22;;;21.92;100.00
10261;BME280;5175;42.606;23.388;2023-06-10T08:15:30;93400.78;;;22.02;100.00
10261;BME280;5175;42.606;23.388;2023-06-10T08:17:57;93398.59;;;22.11;100.00
10261;BME280;5175;42.606;23.388;2023-06-10T08:20:24;93412.50;;;22.48;100.00
10261;BME280;5175;42.606;23.388;2023-06-10T08:22:51;93401.72;;;22.74;100.00
10261;BME280;5175;42.606;23.388;2023-06-10T08:25:18;93415.84;;;23.06;100.00
10261;BME280;5175;42.606;23.388;2023-06-10T08:27:46;93413.03;;;23.25;100.00
10261;BME280;5175;42.606;23.388;2023-06-10T08:30:15;93398.38;;;23.07;100.00
10261;BME280;5175;42.606;23.388;2023-06-10T08:32:42;93398.75;;;23.58;100.00
10261;BME280;5175;42.606;23.388;2023-06-10T08:35:08;93408.13;;;23.90;100.00
10261;BME280;5175;42.606;23.388;2023-06-10T08:37:35;93419.75;;;24.13;96.24
10261;BME280;5175;42.606;23.388;2023-06-10T08:40:03;93406.97;;;24.21;96.73
10261;BME280;5175;42.606;23.388;2023-06-10T08:42:34;93404.16;;;24.14;96.56
10261;BME280;5175;42.606;23.388;2023-06-10T08:45:07;93400.00;;;24.27;92.71
10261;BME280;5175;42.606;23.388;2023-06-10T08:47:37;93407.38;;;24.23;92.21
10261;BME280;5175;42.606;23.388;2023-06-10T08:50:07;93409.75;;;23.95;85.24
10261;BME280;5175;42.606;23.388;2023-06-10T08:52:35;93402.38;;;24.28;80.32
10261;BME280;5175;42.606;23.388;2023-06-10T08:55:04;93405.59;;;24.38;83.80
10261;BME280;5175;42.606;23.388;2023-06-10T08:57:36;93394.78;;;24.48;81.21
10261;BME280;5175;42.606;23.388;2023-06-10T09:00:05;93401.66;;;24.72;80.54
10261;BME280;5175;42.606;23.388;2023-06-10T09:02:34;93399.00;;;24.79;77.23
10261;BME280;5175;42.606;23.388;2023-06-10T09:05:02;93393.13;;;24.77;75.04
10261;BME280;5175;42.606;23.388;2023-06-10T09:07:30;93386.25;;;24.90;76.18
10261;BME280;5175;42.606;23.388;2023-06-10T09:10:01;93395.63;;;24.96;72.53
10261;BME280;5175;42.606;23.388;2023-06-10T09:12:29;93385.94;;;25.02;74.72
10261;BME280;5175;42.606;23.388;2023-06-10T09:14:56;93381.63;;;24.98;69.82
10261;BME280;5175;42.606;23.388;2023-06-10T09:17:23;93387.97;;;25.12;67.85
10261;BME280;5175;42.606;23.388;2023-06-10T09:19:52;93384.28;;;24.87;61.89
10261;BME280;5175;42.606;23.388;2023-06-10T09:22:21;93377.00;;;25.05;64.77
10261;BME280;5175;42.606;23.388;2023-06-10T09:24:48;93376.03;;;25.31;65.54
10261;BME280;5175;42.606;23.388;2023-06-10T09:27:15;93377.34;;;25.51;63.11
10261;BME280;5175;42.606;23.388;2023-06-10T09:29:46;93371.09;;;25.50;61.37
10261;BME280;5175;42.606;23.388;2023-06-10T09:32:13;93371.63;;;25.77;59.98
10261;BME280;5175;42.606;23.388;2023-06-10T09:34:40;93374.41;;;25.91;58.57
10261;BME280;5175;42.606;23.388;2023-06-10T09:37:09;93375.59;;;25.94;59.57
10261;BME280;5175;42.606;23.388;2023-06-10T09:39:38;93379.06;;;25.80;58.82
10261;BME280;5175;42.606;23.388;2023-06-10T09:42:15;93361.47;;;25.13;59.96
10261;BME280;5175;42.606;23.388;2023-06-10T09:44:42;93344.47;;;24.82;63.48
10261;BME280;5175;42.606;23.388;2023-06-10T09:47:19;93372.13;;;25.32;60.95
10261;BME280;5175;42.606;23.388;2023-06-10T09:49:46;93359.31;;;25.43;55.51
10261;BME280;5175;42.606;23.388;2023-06-10T09:52:21;93357.47;;;25.54;58.99
10261;BME280;5175;42.606;23.388;2023-06-10T09:54:48;93366.13;;;25.67;58.75
10261;BME280;5175;42.606;23.388;2023-06-10T09:57:16;93365.31;;;25.66;58.73
10261;BME280;5175;42.606;23.388;2023-06-10T09:59:44;93349.78;;;25.77;59.43
10261;BME280;5175;42.606;23.388;2023-06-10T10:02:14;93358.34;;;25.76;54.55
10261;BME280;5175;42.606;23.388;2023-06-10T10:04:41;93354.09;;;25.89;56.28
10261;BME280;5175;42.606;23.388;2023-06-10T10:07:07;93350.25;;;25.93;57.79
10261;BME280;5175;42.606;23.388;2023-06-10T10:09:40;93355.28;;;25.88;62.80
10261;BME280;5175;42.606;23.388;2023-06-10T10:12:10;93352.53;;;25.84;58.51
10261;BME280;5175;42.606;23.388;2023-06-10T10:14:38;93324.78;;;25.79;57.13
10261;BME280;5175;42.606;23.388;2023-06-10T10:17:08;93324.47;;;26.05;57.11
10261;BME280;5175;42.606;23.388;2023-06-10T10:19:40;93329.63;;;26.21;54.83
10261;BME280;5175;42.606;23.388;2023-06-10T10:22:18;93344.16;;;26.53;53.56
10261;BME280;5175;42.606;23.388;2023-06-10T10:24:50;93348.47;;;26.71;54.15
10261;BME280;5175;42.606;23.388;2023-06-10T10:27:21;93344.59;;;26.87;55.99
10261;BME280;5175;42.606;23.388;2023-06-10T10:29:51;93330.91;;;26.72;54.34
10261;BME280;5175;42.606;23.388;2023-06-10T10:32:26;93341.84;;;26.65;52.42
10261;BME280;5175;42.606;23.388;2023-06-10T10:35:03;93340.31;;;26.89;52.35
10261;BME280;5175;42.606;23.388;2023-06-10T10:37:31;93339.53;;;27.03;53.42
10261;BME280;5175;42.606;23.388;2023-06-10T10:40:00;93316.44;;;26.65;53.69
10261;BME280;5175;42.606;23.388;2023-06-10T10:42:29;93336.78;;;27.24;53.78
10261;BME280;5175;42.606;23.388;2023-06-10T10:44:56;93336.75;;;27.31;49.59
10261;BME280;5175;42.606;23.388;2023-06-10T10:47:27;93337.56;;;27.24;46.37
10261;BME280;5175;42.606;23.388;2023-06-10T10:49:55;93321.13;;;27.00;49.44
10261;BME280;5175;42.606;23.388;2023-06-10T10:52:25;93337.56;;;26.89;46.55
10261;BME280;5175;42.606;23.388;2023-06-10T10:54:53;93320.72;;;26.73;46.93
10261;BME280;5175;42.606;23.388;2023-06-10T10:57:23;93320.34;;;26.89;48.28
10261;BME280;5175;42.606;23.388;2023-06-10T10:59:55;93315.66;;;27.07;50.64
10261;BME280;5175;42.606;23.388;2023-06-10T11:02:36;93323.84;;;26.75;47.83
10261;BME280;5175;42.606;23.388;2023-06-10T11:05:05;93324.66;;;26.79;45.70
10261;BME280;5175;42.606;23.388;2023-06-10T11:07:34;93319.16;;;27.14;46.98
10261;BME280;5175;42.606;23.388;2023-06-10T11:10:03;93322.28;;;27.45;46.69
10261;BME280;5175;42.606;23.388;2023-06-10T11:12:50;93309.69;;;27.61;46.28
10261;BME280;5175;42.606;23.388;2023-06-10T11:15:19;93304.59;;;27.67;50.52
10261;BME280;5175;42.606;23.388;2023-06-10T11:18:09;93305.63;;;27.98;47.96
10261;BME280;5175;42.606;23.388;2023-06-10T11:20:50;93298.50;;;28.21;49.61
10261;BME280;5175;42.606;23.388;2023-06-10T11:23:44;93290.66;;;28.20;51.76
10261;BME280;5175;42.606;23.388;2023-06-10T11:26:16;93284.72;;;28.32;51.54
10261;BME280;5175;42.606;23.388;2023-06-10T11:31:45;93298.66;;;27.82;49.00
10261;BME280;5175;42.606;23.388;2023-06-10T11:34:13;93295.06;;;28.03;54.81
10261;BME280;5175;42.606;23.388;2023-06-10T11:36:41;93274.16;;;28.23;53.16
10261;BME280;5175;42.606;23.388;2023-06-10T11:39:11;93283.69;;;28.05;51.41
10261;BME280;5175;42.606;23.388;2023-06-10T11:41:38;93286.94;;;27.75;51.07
10261;BME280;5175;42.606;23.388;2023-06-10T11:44:08;93272.81;;;27.80;54.40
10261;BME280;5175;42.606;23.388;2023-06-10T11:46:36;93272.50;;;27.60;52.30
10261;BME280;5175;42.606;23.388;2023-06-10T11:49:05;93273.97;;;27.86;53.87
10261;BME280;5175;42.606;23.388;2023-06-10T11:51:34;93272.44;;;27.74;55.65
10261;BME280;5175;42.606;23.388;2023-06-10T11:54:01;93251.03;;;27.45;57.11
10261;BME280;5175;42.606;23.388;2023-06-10T11:56:29;93254.97;;;27.22;57.88
10261;BME280;5175;42.606;23.388;2023-06-10T11:58:57;93260.88;;;26.61;57.71
10261;BME280;5175;42.606;23.388;2023-06-10T12:01:26;93264.81;;;26.49;57.25
10261;BME280;5175;42.606;23.388;2023-06-10T12:03:57;93138.94;;;26.10;55.15
10261;BME280;5175;42.606;23.388;2023-06-10T12:06:26;93260.06;;;27.20;52.25
10261;BME280;5175;42.606;23.388;2023-06-10T12:08:54;93255.28;;;27.56;55.32
10261;BME280;5175;42.606;23.388;2023-06-10T12:11:21;93256.06;;;27.60;49.32
10261;BME280;5175;42.606;23.388;2023-06-10T12:13:49;93222.19;;;26.87;54.00
10261;BME280;5175;42.606;23.388;2023-06-10T12:16:16;93252.56;;;27.39;57.58
10261;BME280;5175;42.606;23.388;2023-06-10T12:18:43;93247.88;;;27.35;57.64
10261;BME280;5175;42.606;23.388;2023-06-10T12:21:18;93241.69;;;27.14;57.39
10261;BME280;5175;42.606;23.388;2023-06-10T12:24:07;93246.78;;;27.19;58.66
10261;BME280;5175;42.606;23.388;2023-06-10T12:26:35;93238.94;;;27.21;57.59
10261;BME280;5175;42.606;23.388;2023-06-10T12:29:12;93240.16;;;27.06;51.90
10261;BME280;5175;42.606;23.388;2023-06-10T12:32:01;93239.34;;;27.12;53.71
10261;BME280;5175;42.606;23.388;2023-06-10T12:34:35;93244.00;;;27.26;54.41
10261;BME280;5175;42.606;23.388;2023-06-10T12:37:02;93240.06;;;27.34;53.43
10261;BME280;5175;42.606;23.388;2023-06-10T12:39:31;93243.63;;;27.24;55.28
10261;BME280;5175;42.606;23.388;2023-06-10T12:41:59;93222.44;;;27.39;54.35
10261;BME280;5175;42.606;23.388;2023-06-10T12:44:32;93228.09;;;27.86;53.02
10261;BME280;5175;42.606;23.388;2023-06-10T12:47:00;93229.69;;;27.84;53.04
10261;BME280;5175;42.606;23.388;2023-06-10T12:49:27;93212.25;;;27.46;48.13
10261;BME280;5175;42.606;23.388;2023-06-10T12:51:54;93216.59;;;27.33;48.98
10261;BME280;5175;42.606;23.388;2023-06-10T12:54:21;93231.06;;;27.30;48.54
10261;BME280;5175;42.606;23.388;2023-06-10T12:56:49;93230.00;;;26.82;52.94
10261;BME280;5175;42.606;23.388;2023-06-10T12:59:16;93230.00;;;26.43;53.84
10261;BME280;5175;42.606;23.388;2023-06-10T13:01:43;93233.13;;;26.27;54.10